Terminal Aerodrome Forecast
Issued by NWS

Current Version | Previous Version | Text Only | Print | Product List | Glossary On
Versions: 1 2 3 4 5 6 7 8 9 10 11 12 13 14 15 16 17 18 19 20
000
FTUS45 KGJT 232341
TAFCNY
TAF
KCNY 232341Z 2400/2424 20012KT P6SM VCSH BKN110
     FM240400 22011KT P6SM VCSH OVC060
     FM240700 24006KT 5SM BR OVC060
     FM241100 26006KT P6SM BKN060
     FM241800 28006KT P6SM BKN110=

USA.gov is the U.S. government's official web portal to all federal, state and local government web resources and services.